Time;durP1;ratioP1;P1;durP2;ratioP2;P2;SDS_P1;SDS_P2;PMS_P1;PMS_P2;Temp;Humidity;BMP_temperature;BMP_pressure;BME280_temperature;BME280_humidity;BME280_pressure;Samples;Min_cycle;Max_cycle;Signal;HPM_P1;HPM_P2
2023/01/06 00:01:36;;;;;;;22.65;8.57;;;7.90;73.00;;;3.08;100.00;96202.94;4956950;28;20517;-52
2023/01/06 00:04:03;;;;;;;28.27;10.77;;;7.80;72.80;;;3.05;100.00;96209.41;4970043;28;20088;-50
2023/01/06 00:06:30;;;;;;;27.92;9.00;;;7.80;72.80;;;3.06;100.00;96207.56;4970665;28;20018;-53
2023/01/06 00:09:02;;;;;;;19.92;9.80;;;7.80;72.90;;;3.08;100.00;96214.25;4967320;28;20501;-55
2023/01/06 00:11:30;;;;;;;20.23;9.07;;;7.80;73.10;;;3.09;100.00;96205.34;4969811;28;20440;-55
2023/01/06 00:13:56;;;;;;;32.88;8.43;;;7.80;73.10;;;3.09;100.00;96207.19;4952147;28;20040;-55
2023/01/06 00:16:22;;;;;;;26.25;9.10;;;7.70;73.00;;;3.03;100.00;96207.97;4969115;28;20026;-59
2023/01/06 00:18:52;;;;;;;27.02;10.13;;;7.70;73.00;;;2.99;100.00;96207.56;4970057;28;20053;-59
2023/01/06 00:21:25;;;;;;;19.05;9.63;;;7.70;73.00;;;2.99;100.00;96208.38;4969794;28;20488;-59
2023/01/06 00:23:51;;;;;;;30.23;9.65;;;7.70;73.00;;;2.97;100.00;96201.69;4969363;28;20084;-57
2023/01/06 00:26:17;;;;;;;18.77;9.90;;;7.70;73.00;;;3.00;100.00;96193.41;4968863;28;20050;-60
2023/01/06 00:28:45;;;;;;;24.13;10.20;;;7.70;73.20;;;2.97;100.00;96194.59;4970129;28;20072;-56
2023/01/06 00:31:16;;;;;;;25.67;9.52;;;7.70;73.20;;;2.99;100.00;96199.69;4969302;28;20436;-57
2023/01/06 00:33:44;;;;;;;58.47;11.77;;;7.70;73.20;;;2.96;100.00;96189.56;4969802;28;20509;-55
2023/01/06 00:36:15;;;;;;;24.38;9.90;;;7.70;73.30;;;2.99;100.00;96186.53;4970778;28;20026;-57
2023/01/06 00:38:43;;;;;;;42.15;10.77;;;7.60;73.20;;;2.95;100.00;96185.31;4969044;28;20026;-57
2023/01/06 00:43:59;;;;;;;29.00;10.13;;;7.60;73.30;;;2.95;100.00;96174.78;4954598;28;20049;-60
2023/01/06 00:46:28;;;;;;;29.85;10.05;;;7.70;73.40;;;2.97;100.00;96178.00;4961988;28;20026;-57
2023/01/06 00:49:00;;;;;;;37.90;10.98;;;7.60;73.30;;;3.00;100.00;96174.97;4970161;28;20176;-59
2023/01/06 00:51:26;;;;;;;22.80;8.10;;;7.60;73.40;;;3.00;100.00;96183.66;4952083;28;20025;-58
2023/01/06 00:53:53;;;;;;;20.60;9.20;;;7.60;73.30;;;3.00;100.00;96174.97;4969412;28;20076;-59
2023/01/06 00:56:19;;;;;;;21.95;9.90;;;7.70;73.40;;;3.05;100.00;96167.28;4937049;28;20022;-57
2023/01/06 00:58:48;;;;;;;20.48;8.30;;;7.70;73.50;;;3.05;100.00;96169.13;4968683;28;20768;-59
2023/01/06 01:01:18;;;;;;;25.52;8.32;;;7.70;73.60;;;3.00;100.00;96173.16;4970243;28;20389;-59
2023/01/06 01:03:46;;;;;;;19.27;9.57;;;7.70;73.40;;;3.04;100.00;96176.22;4974908;28;20053;-57
2023/01/06 01:06:15;;;;;;;19.42;8.55;;;7.70;73.50;;;3.04;100.00;96178.00;4953107;28;20651;-59
2023/01/06 01:08:41;;;;;;;15.15;7.93;;;7.70;73.50;;;2.94;100.00;96178.41;4968939;28;20049;-59
2023/01/06 01:12:08;;;;;;;16.67;8.52;;;7.70;73.40;;;2.97;100.00;96170.09;4952863;28;20392;-53
2023/01/06 01:14:03;;;;;;;51.85;9.32;;;7.60;73.30;;;2.94;100.00;96173.94;4965033;28;20104;-56
2023/01/06 01:16:31;;;;;;;18.13;8.70;;;7.60;73.30;;;2.91;100.00;96166.47;4969934;28;20419;-59
2023/01/06 01:18:57;;;;;;;41.80;9.18;;;7.60;73.30;;;2.86;100.00;96168.09;4936748;28;20096;-57
2023/01/06 01:21:25;;;;;;;18.98;9.27;;;7.60;73.30;;;2.81;100.00;96173.94;4969262;28;20465;-56
2023/01/06 01:23:51;;;;;;;20.65;8.10;;;7.60;73.40;;;2.84;100.00;96181.44;4969755;28;20030;-52
2023/01/06 01:26:20;;;;;;;21.00;9.40;;;7.50;73.20;;;2.87;100.00;96174.97;4973177;28;20500;-57
2023/01/06 01:28:49;;;;;;;16.67;8.45;;;7.50;73.40;;;2.91;100.00;96176.19;4973089;28;20440;-57
2023/01/06 01:31:15;;;;;;;13.90;7.40;;;7.50;73.50;;;2.90;100.00;96187.72;4973597;28;20067;-54
2023/01/06 01:33:42;;;;;;;24.33;7.38;;;7.50;73.50;;;2.85;100.00;96187.50;4971233;28;20121;-58
2023/01/06 01:36:15;;;;;;;16.50;7.60;;;7.50;73.40;;;2.81;100.00;96184.47;4972191;28;20476;-56
2023/01/06 01:38:42;;;;;;;13.20;7.07;;;7.50;73.50;;;2.82;100.00;96190.53;4955094;28;20045;-58
2023/01/06 01:41:16;;;;;;;9.90;6.13;;;7.50;73.50;;;2.87;100.00;96190.75;4956389;28;20105;-57
2023/01/06 01:43:44;;;;;;;12.23;6.82;;;7.50;73.50;;;2.85;100.00;96188.34;4972025;28;20088;-57
2023/01/06 01:46:19;;;;;;;13.25;7.20;;;7.50;73.50;;;2.81;100.00;96183.66;4973020;28;20022;-58
2023/01/06 01:48:45;;;;;;;14.13;6.68;;;7.50;73.40;;;2.81;100.00;96187.09;4972664;28;20411;-55
2023/01/06 01:51:23;;;;;;;17.08;6.43;;;7.50;73.40;;;2.82;100.00;96188.75;4936082;28;20027;-59
2023/01/06 01:53:59;;;;;;;12.75;6.25;;;7.50;73.40;;;2.80;100.00;96185.50;4969707;28;20030;-59
2023/01/06 01:56:33;;;;;;;24.27;6.47;;;7.50;73.40;;;2.75;100.00;96185.28;4970786;28;20076;-58
2023/01/06 01:59:18;;;;;;;15.18;6.25;;;7.50;73.30;;;2.68;100.00;96179.19;4955712;28;20022;-56
2023/01/06 02:01:49;;;;;;;15.75;6.65;;;7.50;73.20;;;2.64;100.00;96178.78;4972041;28;20104;-57
2023/01/06 02:04:19;;;;;;;19.80;7.60;;;7.40;73.20;;;2.59;100.00;96175.94;4955591;28;20032;-59
2023/01/06 02:06:49;;;;;;;29.48;6.95;;;7.40;73.20;;;2.59;100.00;96170.69;4955435;28;20370;-58
2023/01/06 02:09:34;;;;;;;17.30;7.20;;;7.40;73.30;;;2.61;100.00;96165.25;4971411;28;20057;-59
2023/01/06 02:12:15;;;;;;;39.17;7.38;;;7.40;73.30;;;2.60;100.00;96163.59;4973012;28;20054;-59
2023/01/06 02:14:41;;;;;;;20.85;6.78;;;7.30;74.10;;;2.51;100.00;96155.91;4972031;28;20026;-59
2023/01/06 02:18:19;;;;;;;18.02;7.75;;;7.30;73.30;;;2.58;100.00;96158.56;4955107;28;20042;-54
2023/01/06 02:21:36;;;;;;;26.25;7.15;;;7.30;73.30;;;2.59;100.00;96160.16;4931209;28;20154;-58
2023/01/06 02:25:20;;;;;;;24.10;6.50;;;7.20;73.50;;;2.58;100.00;96160.38;4915508;29;20497;-55
2023/01/06 02:29:08;;;;;;;42.35;7.57;;;7.20;73.50;;;2.50;100.00;96159.53;4970836;28;20033;-52
2023/01/06 02:32:09;;;;;;;24.05;7.50;;;7.20;73.60;;;2.51;100.00;96165.63;4948794;28;20061;-59
2023/01/06 02:35:01;;;;;;;20.73;7.38;;;7.10;73.60;;;2.50;100.00;96156.91;4965843;28;20032;-59
2023/01/06 02:38:20;;;;;;;32.63;7.35;;;7.20;73.70;;;2.48;100.00;96155.50;4959555;28;20033;-59
2023/01/06 02:41:28;;;;;;;16.63;7.18;;;7.20;73.60;;;2.45;100.00;96155.91;4929087;28;20121;-59
2023/01/06 02:44:24;;;;;;;23.15;6.55;;;7.10;73.60;;;2.37;100.00;96149.00;4970391;28;20026;-57
2023/01/06 02:47:15;;;;;;;17.13;6.55;;;7.10;73.50;;;2.31;100.00;96150.59;4938903;28;20041;-55
2023/01/06 02:50:20;;;;;;;19.77;7.15;;;7.10;73.40;;;2.30;100.00;96153.44;4971226;28;20535;-57
2023/01/06 02:53:28;;;;;;;15.48;6.38;;;7.00;73.40;;;2.24;100.00;96143.72;4971220;28;20033;-57
2023/01/06 02:55:57;;;;;;;15.70;6.13;;;7.00;73.40;;;2.21;100.00;96152.00;4970080;28;20461;-59
2023/01/06 02:59:11;;;;;;;12.25;6.30;;;7.00;73.40;;;2.15;100.00;96144.91;4954700;28;20030;-58
2023/01/06 03:01:46;;;;;;;13.38;6.00;;;7.00;73.40;;;2.12;100.00;96140.03;4971123;28;20122;-59
2023/01/06 03:04:25;;;;;;;21.38;6.88;;;6.90;73.40;;;2.10;100.00;96142.88;4970924;28;20161;-58
2023/01/06 03:06:57;;;;;;;13.13;6.15;;;6.90;73.40;;;2.06;100.00;96147.69;4954418;28;20033;-58
2023/01/06 03:09:36;;;;;;;34.28;6.18;;;6.90;73.40;;;2.00;100.00;96139.78;4953725;28;20160;-59
2023/01/06 03:12:47;;;;;;;15.48;5.68;;;6.90;73.30;;;1.96;100.00;96151.69;4970891;28;20533;-59
2023/01/06 03:15:16;;;;;;;21.60;6.03;;;6.80;73.20;;;1.91;100.00;96141.75;4962236;28;20060;-59
2023/01/06 03:17:43;;;;;;;11.88;6.20;;;6.80;73.20;;;1.90;100.00;96139.34;4970457;28;20032;-59
2023/01/06 03:20:13;;;;;;;14.57;6.53;;;6.70;73.20;;;1.91;100.00;96128.63;4969565;28;20018;-59
2023/01/06 03:22:46;;;;;;;23.65;6.65;;;6.70;73.30;;;1.95;100.00;96140.38;4954783;28;20053;-59
2023/01/06 03:25:15;;;;;;;44.45;6.65;;;6.70;73.50;;;1.91;100.00;96125.19;4971801;28;20057;-57
2023/01/06 03:27:43;;;;;;;24.25;5.90;;;6.70;73.40;;;1.83;100.00;96137.50;4952937;28;20041;-55
2023/01/06 03:30:12;;;;;;;19.05;5.20;;;6.70;73.40;;;1.81;100.00;96136.06;4971604;28;20113;-59
2023/01/06 03:33:16;;;;;;;41.75;6.80;;;6.60;73.20;;;1.73;100.00;96133.63;4937274;28;20097;-59
2023/01/06 03:36:23;;;;;;;;;;;6.60;73.10;;;1.71;100.00;96139.06;4972309;28;20030;-59
2023/01/06 03:39:33;;;;;;;12.23;6.25;;;6.50;73.10;;;1.74;100.00;96135.25;4969946;28;20261;-56
2023/01/06 03:46:11;;;;;;;137.20;11.45;;;6.50;73.50;;;1.72;100.00;96145.13;4970426;28;20140;-57
2023/01/06 03:49:33;;;;;;;193.15;14.60;;;6.50;73.80;;;1.75;100.00;96150.00;4971008;28;20036;-59
2023/01/06 03:52:31;;;;;;;150.70;13.35;;;6.50;73.90;;;1.80;100.00;96150.22;4970391;28;20040;-55
2023/01/06 03:55:20;;;;;;;356.10;23.33;;;6.60;74.00;;;1.85;100.00;96153.09;4954531;28;20051;-55
2023/01/06 03:57:57;;;;;;;154.93;15.05;;;6.70;74.30;;;1.91;100.00;96149.66;4952780;28;20424;-59
2023/01/06 04:00:36;;;;;;;176.27;15.95;;;6.70;74.30;;;1.98;100.00;96153.13;4953147;28;20521;-59
2023/01/06 04:03:12;;;;;;;325.10;21.98;;;6.80;74.40;;;2.04;100.00;96149.72;4964610;28;20026;-58
2023/01/06 04:05:38;;;;;;;126.97;15.27;;;6.90;74.30;;;2.09;100.00;96147.28;4953248;28;20030;-58
2023/01/06 04:08:05;;;;;;;194.98;16.70;;;6.90;74.20;;;2.16;100.00;96143.88;4967984;28;20042;-59
2023/01/06 04:10:31;;;;;;;271.35;19.42;;;7.00;74.10;;;2.22;100.00;96151.78;4969980;28;20065;-58
2023/01/06 04:13:09;;;;;;;157.25;16.58;;;7.10;74.20;;;2.32;100.00;96146.16;4952907;28;20126;-54
2023/01/06 04:15:34;;;;;;;306.95;20.40;;;7.20;74.30;;;2.40;100.00;96143.34;4967808;28;20030;-59
2023/01/06 04:18:00;;;;;;;425.95;26.25;;;7.30;74.20;;;2.46;100.00;96139.91;4968135;28;20161;-54
2023/01/06 04:20:30;;;;;;;140.73;15.15;;;7.30;74.20;;;2.55;100.00;96143.16;4935661;28;20029;-56
2023/01/06 04:22:57;;;;;;;230.57;17.77;;;7.40;74.30;;;2.60;100.00;96151.28;4969665;28;20022;-59
2023/01/06 04:25:24;;;;;;;415.65;25.75;;;7.50;74.30;;;2.66;100.00;96160.16;4955345;28;20113;-59
2023/01/06 04:27:51;;;;;;;210.40;16.88;;;7.50;74.10;;;2.70;100.00;96151.69;4951130;28;20026;-56
2023/01/06 04:30:19;;;;;;;190.98;16.95;;;7.60;74.20;;;2.76;100.00;96144.81;4968572;28;20030;-58
2023/01/06 04:32:45;;;;;;;161.95;15.95;;;7.60;74.10;;;2.83;100.00;96153.50;4966452;28;20389;-55
2023/01/06 04:35:14;;;;;;;169.15;16.50;;;7.70;74.20;;;2.86;100.00;96161.00;4952417;28;20076;-59
2023/01/06 04:37:45;;;;;;;249.85;19.83;;;7.70;74.20;;;2.89;100.00;96160.59;4951858;28;20108;-56
2023/01/06 04:40:14;;;;;;;137.48;15.10;;;7.80;74.10;;;2.94;100.00;96150.25;4968954;28;20026;-57
2023/01/06 04:45:35;;;;;;;171.80;14.40;;;7.90;74.00;;;3.04;100.00;96156.94;4966340;28;20040;-54
2023/01/06 04:48:04;;;;;;;212.40;17.73;;;8.00;74.00;;;3.07;100.00;96164.44;4969229;28;20491;-59
2023/01/06 04:50:33;;;;;;;263.58;20.30;;;8.00;73.90;;;3.12;100.00;96169.91;4968522;28;20389;-55
2023/01/06 04:52:59;;;;;;;252.38;20.23;;;8.00;73.80;;;3.13;100.00;96166.25;4968833;28;20026;-57
2023/01/06 04:55:31;;;;;;;257.15;20.17;;;8.00;73.80;;;3.12;100.00;96168.09;4969882;28;20622;-59
2023/01/06 04:58:00;;;;;;;136.63;13.45;;;8.10;73.80;;;3.16;100.00;96164.03;4967178;28;20069;-55
2023/01/06 05:00:26;;;;;;;223.70;19.95;;;8.10;73.80;;;3.18;100.00;96164.66;4972967;28;20041;-59
2023/01/06 05:02:55;;;;;;;444.85;28.08;;;8.10;73.80;;;3.21;100.00;96168.69;4971494;28;20018;-52
2023/01/06 05:05:23;;;;;;;302.95;23.30;;;8.10;73.70;;;3.23;100.00;96159.59;4973465;28;20034;-52
2023/01/06 05:07:54;;;;;;;313.10;28.63;;;8.20;73.80;;;3.25;100.00;96168.06;4972148;28;20038;-52
2023/01/06 05:10:29;;;;;;;188.48;21.83;;;8.20;73.70;;;3.27;100.00;96172.34;4965109;28;20109;-58
2023/01/06 05:12:55;;;;;;;371.88;30.15;;;8.20;73.70;;;3.32;100.00;96164.63;4971078;28;20030;-58
2023/01/06 05:15:30;;;;;;;324.73;24.83;;;8.20;73.70;;;3.36;100.00;96166.66;4971997;28;20040;-57
2023/01/06 05:17:58;;;;;;;345.27;24.58;;;8.20;73.80;;;3.40;100.00;96167.06;4972803;28;20033;-53
2023/01/06 05:20:24;;;;;;;248.68;20.58;;;8.20;73.90;;;3.42;100.00;96172.94;4971913;28;20018;-56
2023/01/06 05:22:56;;;;;;;388.83;25.90;;;8.30;73.90;;;3.47;100.00;96171.28;4955155;28;20750;-53
2023/01/06 05:25:22;;;;;;;373.02;26.00;;;8.30;74.00;;;3.50;100.00;96169.28;4973100;28;20116;-55
2023/01/06 05:27:48;;;;;;;266.90;21.83;;;8.30;73.90;;;3.50;100.00;96170.06;4935246;28;20134;-56
2023/01/06 05:30:13;;;;;;;316.00;24.10;;;8.30;74.00;;;3.54;100.00;96176.56;4965812;28;20507;-55
2023/01/06 05:32:42;;;;;;;311.20;23.33;;;8.40;74.00;;;3.57;100.00;96173.50;4970147;28;20553;-55
2023/01/06 05:35:08;;;;;;;332.13;23.55;;;8.40;74.00;;;3.61;100.00;96179.19;4973044;28;20033;-58
2023/01/06 05:37:37;;;;;;;269.83;22.73;;;8.40;74.00;;;3.61;100.00;96168.66;4972892;28;20022;-57
2023/01/06 05:40:06;;;;;;;269.58;22.70;;;8.40;74.00;;;3.64;100.00;96166.41;4971631;28;20021;-58
2023/01/06 05:42:35;;;;;;;403.77;28.35;;;8.50;74.00;;;3.64;100.00;96174.31;4972455;28;20030;-56
2023/01/06 05:45:08;;;;;;;424.00;29.10;;;8.50;74.00;;;3.67;100.00;96184.44;4971058;28;20045;-52
2023/01/06 05:47:37;;;;;;;389.70;27.55;;;8.50;74.00;;;3.71;100.00;96185.63;4974066;28;20022;-54
2023/01/06 05:50:07;;;;;;;504.30;33.42;;;8.50;74.00;;;3.76;100.00;96189.47;4953671;28;20026;-58
2023/01/06 05:52:32;;;;;;;528.30;35.25;;;8.50;74.00;;;3.78;100.00;96193.53;4971920;28;20030;-56
2023/01/06 05:54:58;;;;;;;308.13;24.88;;;8.60;74.10;;;3.81;100.00;96205.47;4972407;28;20531;-56
2023/01/06 05:57:37;;;;;;;285.38;23.95;;;8.60;74.00;;;3.82;100.00;96204.47;4954115;28;20025;-58
2023/01/06 06:00:07;;;;;;;230.93;23.73;;;8.70;74.10;;;3.85;100.00;96207.47;4949105;28;20026;-54
2023/01/06 06:02:45;;;;;;;298.67;28.60;;;8.70;74.10;;;3.88;100.00;96199.16;4970973;28;20026;-57
2023/01/06 06:05:11;;;;;;;300.73;26.30;;;8.70;74.10;;;3.90;100.00;96210.31;4970911;28;20036;-57
2023/01/06 06:07:37;;;;;;;217.38;22.05;;;8.70;74.00;;;3.93;100.00;96202.00;4945715;23;20411;-53
2023/01/06 06:10:09;;;;;;;603.78;40.55;;;8.80;74.00;;;3.95;100.00;96204.44;4928489;29;20038;-52
2023/01/06 06:12:36;;;;;;;342.55;27.23;;;8.80;74.00;;;3.98;100.00;96201.41;4934005;28;20066;-52
2023/01/06 06:15:08;;;;;;;299.00;26.83;;;8.80;74.00;;;4.02;100.00;96207.88;4922114;29;20486;-51
2023/01/06 06:17:34;;;;;;;296.73;25.58;;;8.80;73.90;;;4.03;100.00;96214.75;4916435;29;20121;-53
2023/01/06 06:20:00;;;;;;;141.65;20.77;;;8.90;74.00;;;4.05;100.00;96204.81;4911881;29;20746;-55
2023/01/06 06:22:26;;;;;;;112.75;18.38;;;8.90;73.90;;;4.10;100.00;96210.25;4914624;29;20383;-53
2023/01/06 06:24:51;;;;;;;94.55;17.33;;;8.90;73.90;;;4.14;100.00;96215.94;4914659;29;20114;-55
2023/01/06 06:27:17;;;;;;;113.85;20.17;;;9.00;73.90;;;4.15;100.00;96201.72;4913321;29;20509;-55
2023/01/06 06:29:43;;;;;;;87.25;18.45;;;9.00;73.90;;;4.17;100.00;96203.16;4908962;29;20040;-56
2023/01/06 06:32:09;;;;;;;82.57;17.83;;;9.00;73.80;;;4.20;100.00;96209.84;4927065;29;20043;-53
2023/01/06 06:34:35;;;;;;;106.65;20.33;;;9.10;73.80;;;4.22;100.00;96197.22;4925460;29;20119;-53
2023/01/06 06:37:04;;;;;;;184.35;23.55;;;9.10;73.80;;;4.23;100.00;96198.88;4909218;29;20027;-54
2023/01/06 06:39:39;;;;;;;92.25;19.83;;;9.10;73.70;;;4.27;100.00;96209.81;4912985;29;20725;-56
2023/01/06 06:42:05;;;;;;;108.38;20.60;;;9.20;73.80;;;4.30;100.00;96199.66;4914363;29;20066;-55
2023/01/06 06:44:31;;;;;;;86.95;19.98;;;9.20;73.80;;;4.31;100.00;96203.88;4911272;29;20498;-54
2023/01/06 06:46:59;;;;;;;224.43;26.30;;;9.20;73.80;;;4.33;100.00;96212.41;4913926;29;20079;-53
2023/01/06 06:49:25;;;;;;;72.22;16.95;;;9.30;73.80;;;4.35;100.00;96210.34;4913180;29;20531;-54
2023/01/06 06:51:51;;;;;;;108.90;20.48;;;9.30;73.70;;;4.34;100.00;96211.38;4927342;29;20080;-51
2023/01/06 06:54:17;;;;;;;86.13;19.33;;;9.30;73.70;;;4.39;100.00;96208.94;4908934;29;20045;-50
2023/01/06 06:56:42;;;;;;;75.40;20.02;;;9.30;73.70;;;4.39;100.00;96201.03;4924967;29;20023;-51
2023/01/06 06:59:08;;;;;;;78.13;19.30;;;9.30;73.60;;;4.45;100.00;96201.19;4907883;29;20038;-54
2023/01/06 07:01:34;;;;;;;73.30;18.98;;;9.40;73.70;;;4.44;100.00;96202.22;4930715;28;20218;-52
2023/01/06 07:04:00;;;;;;;72.00;18.35;;;9.40;73.60;;;4.43;100.00;96195.31;4909265;29;20082;-51
2023/01/06 07:06:27;;;;;;;71.05;19.65;;;9.40;73.60;;;4.47;100.00;96199.97;4912184;29;20039;-53
2023/01/06 07:08:59;;;;;;;61.97;18.58;;;9.40;74.40;;;4.48;100.00;96206.03;4922386;29;20066;-52
2023/01/06 07:11:25;;;;;;;67.07;18.33;;;9.40;73.70;;;4.51;100.00;96201.19;4913802;28;20026;-50
2023/01/06 07:13:51;;;;;;;84.18;19.65;;;9.40;74.50;;;4.53;100.00;96201.75;4927804;29;20019;-53
2023/01/06 07:16:18;;;;;;;58.00;16.98;;;9.40;73.70;;;4.52;100.00;96197.50;4917726;29;20453;-52
2023/01/06 07:18:45;;;;;;;65.50;17.17;;;9.50;73.70;;;4.57;100.00;96194.22;4913942;29;20031;-52
2023/01/06 07:21:14;;;;;;;137.90;20.48;;;9.50;73.80;;;4.59;100.00;96197.47;4912956;29;20022;-54
2023/01/06 07:23:40;;;;;;;53.92;13.85;;;9.50;73.70;;;4.58;100.00;96199.31;4931673;29;20126;-51
2023/01/06 07:26:06;;;;;;;56.38;14.65;;;9.50;73.60;;;4.59;100.00;96198.28;4912574;29;20118;-53
2023/01/06 07:28:35;;;;;;;56.15;15.63;;;9.60;73.60;;;4.62;100.00;96197.84;4931228;29;20102;-50
2023/01/06 07:31:04;;;;;;;59.38;15.35;;;9.60;73.60;;;4.63;100.00;96196.81;4929918;29;20049;-51
2023/01/06 07:33:30;;;;;;;44.60;13.38;;;9.60;73.70;;;4.62;100.00;96197.84;4929830;29;20126;-50
2023/01/06 07:36:01;;;;;;;53.38;14.40;;;9.60;73.60;;;4.64;100.00;96195.03;4927158;29;20035;-51
2023/01/06 07:38:27;;;;;;;47.85;13.75;;;9.60;73.60;;;4.58;100.00;96199.31;4925789;29;20023;-53
2023/01/06 07:41:00;;;;;;;52.65;14.13;;;9.60;73.50;;;4.61;100.00;96201.53;4929942;29;20101;-52
2023/01/06 07:43:25;;;;;;;;;;;9.60;73.50;;;4.66;100.00;96210.63;4927731;29;20026;-49
2023/01/06 07:45:54;;;;;;;41.00;12.38;;;9.60;73.40;;;4.68;100.00;96212.03;4929913;29;19997;-49
2023/01/06 07:48:29;;;;;;;43.22;12.38;;;9.60;73.50;;;4.71;100.00;96213.44;4913933;29;20033;-50
2023/01/06 07:50:57;;;;;;;36.95;11.80;;;9.70;73.50;;;4.67;100.00;96202.50;4929702;29;20031;-50
2023/01/06 07:53:23;;;;;;;28.95;11.23;;;9.70;73.40;;;4.72;100.00;96209.78;4919742;29;20478;-52
2023/01/06 07:55:53;;;;;;;30.75;11.07;;;9.70;73.40;;;4.73;100.00;96214.88;4912665;29;20064;-50
2023/01/06 07:58:22;;;;;;;31.80;10.82;;;9.80;73.50;;;4.72;100.00;96213.22;4930348;29;20042;-52
2023/01/06 08:00:49;;;;;;;25.83;10.07;;;9.80;73.50;;;4.71;100.00;96211.63;4918314;29;20047;-50
2023/01/06 08:03:18;;;;;;;31.67;11.25;;;9.80;73.50;;;4.70;100.00;96214.44;4929780;29;20034;-51
2023/01/06 08:05:43;;;;;;;30.23;10.43;;;9.70;73.40;;;4.70;100.00;96215.28;4918559;29;20486;-53
2023/01/06 08:08:11;;;;;;;32.92;9.63;;;9.80;73.50;;;4.80;100.00;96220.09;4927736;29;20121;-49
2023/01/06 08:10:42;;;;;;;25.38;10.63;;;9.80;73.40;;;4.86;100.00;96225.34;4931159;29;20031;-51
2023/01/06 08:13:11;;;;;;;24.67;10.30;;;9.90;73.50;;;4.90;100.00;96222.28;4914644;29;20051;-51
2023/01/06 08:15:47;;;;;;;29.65;9.63;;;10.00;73.50;;;4.94;100.00;96226.91;4909682;29;20035;-50
2023/01/06 08:18:19;;;;;;;25.15;9.48;;;10.00;73.50;;;5.02;100.00;96226.66;4930911;29;20524;-50
2023/01/06 08:20:45;;;;;;;25.67;9.57;;;10.10;73.60;;;5.06;100.00;96221.75;4912924;29;20085;-55
2023/01/06 08:23:10;;;;;;;24.83;9.20;;;10.10;73.50;;;5.08;100.00;96217.06;4931453;29;20035;-49
2023/01/06 08:25:36;;;;;;;28.77;9.88;;;10.20;73.50;;;5.14;100.00;96220.66;4931453;29;20052;-51
2023/01/06 08:28:08;;;;;;;24.65;10.55;;;10.30;73.40;;;5.21;100.00;96224.88;4930116;29;20111;-50
2023/01/06 08:30:38;;;;;;;23.50;10.30;;;10.40;73.40;;;5.25;100.00;96217.34;4913916;29;20031;-50
2023/01/06 08:33:05;;;;;;;29.30;11.43;;;10.40;73.30;;;5.33;100.00;96232.94;4929802;29;20422;-52
2023/01/06 08:35:36;;;;;;;29.27;11.75;;;10.50;73.30;;;5.34;100.00;96238.00;4918067;29;20031;-51
2023/01/06 08:38:05;;;;;;;34.30;10.95;;;10.50;73.30;;;5.36;100.00;96240.44;4929503;29;20106;-51
2023/01/06 08:40:31;;;;;;;28.10;10.20;;;10.60;73.20;;;5.36;100.00;96247.53;4929997;29;20027;-52
2023/01/06 08:42:57;;;;;;;29.15;10.57;;;10.60;73.00;;;5.39;100.00;96232.06;4926756;29;20027;-50
2023/01/06 08:45:26;;;;;;;37.20;11.23;;;10.60;72.90;;;5.44;100.00;96241.97;4894137;29;20105;-49
2023/01/06 08:47:58;;;;;;;44.75;12.27;;;10.70;72.90;;;5.42;100.00;96236.09;4928674;29;20169;-49
2023/01/06 08:50:32;;;;;;;31.52;11.10;;;10.70;72.90;;;5.46;100.00;96239.94;4929496;29;20027;-50
2023/01/06 08:53:01;;;;;;;31.15;11.05;;;10.80;72.90;;;5.51;100.00;96242.72;4926669;29;20154;-53
2023/01/06 08:55:30;;;;;;;37.65;12.60;;;10.80;72.80;;;5.57;100.00;96257.72;4930198;29;20035;-49
2023/01/06 08:57:58;;;;;;;31.23;11.52;;;10.80;72.70;;;5.64;100.00;96255.84;4924882;29;20023;-55
2023/01/06 09:00:24;;;;;;;35.00;11.40;;;10.90;72.80;;;5.68;100.00;96254.38;4913389;29;20063;-53
2023/01/06 09:02:50;;;;;;;37.55;12.73;;;11.00;72.80;;;5.71;100.00;96255.78;4911699;29;20520;-51
2023/01/06 09:05:23;;;;;;;37.40;12.25;;;11.00;72.80;;;5.74;100.00;96258.81;4913680;29;20126;-56
2023/01/06 09:07:49;;;;;;;42.38;12.23;;;11.00;72.70;;;5.76;100.00;96256.72;4923210;29;20447;-54
2023/01/06 09:10:18;;;;;;;39.45;12.38;;;11.10;72.60;;;5.80;100.00;96252.66;4910088;29;20040;-52
2023/01/06 09:12:45;;;;;;;47.83;12.38;;;11.10;72.70;;;5.86;100.00;96258.91;4911450;29;20391;-53
2023/01/06 09:15:12;;;;;;;40.30;13.30;;;11.10;72.60;;;5.83;100.00;96254.06;4910844;29;20387;-53
2023/01/06 09:17:41;;;;;;;40.60;12.25;;;11.20;72.60;;;5.83;100.00;96262.00;4925350;29;20028;-53
2023/01/06 09:20:09;;;;;;;43.35;15.15;;;11.30;72.50;;;5.93;100.00;96257.03;4909883;29;20442;-53
2023/01/06 09:22:38;;;;;;;45.55;14.07;;;11.30;72.40;;;6.00;100.00;96259.59;4910341;29;20478;-50
2023/01/06 09:25:05;;;;;;;55.88;15.27;;;11.40;72.40;;;6.00;100.00;96270.19;4923280;29;20575;-54
2023/01/06 09:27:33;;;;;;;45.25;14.00;;;11.50;72.40;;;6.10;100.00;96269.69;4921367;29;20027;-55
2023/01/06 09:29:59;;;;;;;45.63;15.13;;;11.50;72.30;;;6.13;100.00;96269.25;4911712;29;20059;-54
2023/01/06 09:32:25;;;;;;;45.65;13.63;;;11.60;72.30;;;6.09;100.00;96268.06;4925372;29;20032;-52
2023/01/06 09:35:04;;;;;;;44.83;14.18;;;11.60;72.20;;;6.11;100.00;96271.28;4911958;29;20023;-53
2023/01/06 09:37:29;;;;;;;42.03;14.50;;;11.70;72.20;;;6.10;100.00;96280.25;4911133;29;20031;-52
2023/01/06 09:39:55;;;;;;;38.72;14.35;;;11.70;72.10;;;6.19;100.00;96279.75;4910383;29;20471;-52
2023/01/06 09:43:51;;;;;;;39.92;14.50;;;11.70;72.10;;;6.34;100.00;96284.69;4910041;29;20027;-52
2023/01/06 09:46:33;;;;;;;38.50;14.57;;;11.80;72.10;;;6.40;100.00;96285.66;4902458;29;20410;-55
2023/01/06 09:49:46;;;;;;;42.67;13.82;;;11.80;72.30;;;6.45;100.00;96297.16;4914402;29;20406;-54
2023/01/06 09:53:14;;;;;;;39.60;12.85;;;11.90;72.30;;;6.44;100.00;96290.28;4912575;29;20114;-50
2023/01/06 09:55:59;;;;;;;35.20;12.68;;;11.90;72.10;;;6.32;100.00;96296.53;4903114;29;20035;-51
2023/01/06 09:58:53;;;;;;;34.60;12.38;;;11.90;71.90;;;6.33;100.00;96291.03;4913576;29;20106;-55
2023/01/06 10:01:43;;;;;;;36.22;11.60;;;11.90;71.80;;;6.39;100.00;96286.66;4924282;29;20040;-52
2023/01/06 10:04:29;;;;;;;28.42;11.30;;;11.90;71.80;;;6.39;100.00;96295.44;4904297;29;20883;-53
2023/01/06 10:08:00;;;;;;;32.58;11.15;;;11.90;71.80;;;6.46;100.00;96296.16;4908512;29;20127;-51
2023/01/06 10:11:08;;;;;;;30.05;11.32;;;11.80;71.90;;;6.51;100.00;96295.47;4927496;28;20054;-50
2023/01/06 10:14:24;;;;;;;28.60;10.45;;;11.80;72.00;;;6.54;100.00;96295.03;4910085;29;20046;-49
2023/01/06 10:18:10;;;;;;;30.58;10.45;;;11.80;72.00;;;6.56;100.00;96289.53;4910640;28;20035;-51
2023/01/06 10:21:10;;;;;;;27.08;10.73;;;11.90;72.00;;;6.60;100.00;96288.88;4909004;29;20797;-50
2023/01/06 10:24:37;;;;;;;17.08;8.70;;;11.90;72.00;;;6.58;100.00;96287.47;4904998;29;20027;-50
2023/01/06 10:27:39;;;;;;;20.48;8.70;;;11.90;71.90;;;6.67;100.00;96289.59;4910464;29;20016;-52
2023/01/06 10:30:46;;;;;;;22.52;9.52;;;12.00;72.00;;;6.76;100.00;96287.44;4908449;29;20076;-50
2023/01/06 10:33:40;;;;;;;29.88;10.55;;;12.00;72.00;;;6.75;100.00;96285.84;4908077;29;20031;-50
2023/01/06 10:36:18;;;;;;;25.75;10.35;;;12.10;72.00;;;6.79;100.00;96289.66;4912525;29;20023;-52
2023/01/06 10:38:52;;;;;;;28.65;10.52;;;12.10;71.90;;;6.83;100.00;96280.25;4888109;29;20055;-55
2023/01/06 10:41:55;;;;;;;26.10;10.00;;;12.20;71.90;;;6.91;100.00;96287.88;4911308;29;20032;-52
2023/01/06 10:44:21;;;;;;;22.17;10.13;;;12.30;71.90;;;6.99;100.00;96283.28;4873368;29;20066;-51
2023/01/06 10:46:48;;;;;;;25.27;10.45;;;12.40;71.80;;;6.93;100.00;96279.72;4905279;29;20055;-51
2023/01/06 10:49:18;;;;;;;19.02;9.23;;;12.40;71.70;;;6.92;100.00;96280.72;4924387;29;21594;-52
2023/01/06 10:52:02;;;;;;;21.38;9.63;;;12.40;71.50;;;6.94;100.00;96282.13;4922758;29;20035;-53
2023/01/06 10:54:33;;;;;;;22.08;9.85;;;12.50;71.60;;;6.99;100.00;96272.69;4911739;29;20106;-52
2023/01/06 10:57:25;;;;;;;20.70;9.88;;;12.40;71.50;;;7.03;100.00;96272.03;4893400;29;20023;-50